createdAt,value
2023-02-27T00:00:36.590Z,56.36
2023-02-27T00:01:39.632Z,56.42
2023-02-27T00:02:48.422Z,56.54
2023-02-27T00:03:51.609Z,56.69
2023-02-27T00:04:54.867Z,56.73
2023-02-27T00:05:58.088Z,56.65
2023-02-27T00:07:01.234Z,56.85
2023-02-27T00:08:04.647Z,56.97
2023-02-27T00:09:08.653Z,57.12
2023-02-27T00:10:14.068Z,56.90
2023-02-27T00:11:17.019Z,56.88
2023-02-27T00:12:20.344Z,57.17
2023-02-27T00:13:23.440Z,57.21
2023-02-27T00:14:26.713Z,57.20
2023-02-27T00:15:32.356Z,57.13
2023-02-27T00:16:35.383Z,57.30
2023-02-27T00:17:38.855Z,57.29
2023-02-27T00:18:41.963Z,57.25
2023-02-27T00:19:45.082Z,57.38
2023-02-27T00:20:48.855Z,57.30
2023-02-27T00:21:51.829Z,57.49
2023-02-27T00:22:55.087Z,57.41
2023-02-27T00:23:58.460Z,57.45
2023-02-27T00:25:01.526Z,57.46
2023-02-27T00:26:04.715Z,57.37
2023-02-27T00:27:07.882Z,57.21
2023-02-27T00:28:10.969Z,57.24
2023-02-27T00:29:13.935Z,57.31
2023-02-27T00:30:17.206Z,57.29
2023-02-27T00:31:20.206Z,57.44
2023-02-27T00:32:23.505Z,57.47
2023-02-27T00:33:26.644Z,57.65
2023-02-27T00:34:29.722Z,57.73
2023-02-27T00:35:32.733Z,57.59
2023-02-27T00:36:35.685Z,57.77
2023-02-27T00:37:39.719Z,57.77
2023-02-27T00:38:44.771Z,57.89
2023-02-27T00:39:47.712Z,57.84
2023-02-27T00:40:50.737Z,57.54
2023-02-27T00:41:53.648Z,57.51
2023-02-27T00:42:56.669Z,57.59
2023-02-27T00:43:59.648Z,57.69
2023-02-27T00:45:04.193Z,57.71
2023-02-27T00:46:07.264Z,57.51
2023-02-27T00:47:10.558Z,57.88
2023-02-27T00:48:13.957Z,57.73
2023-02-27T00:49:17.160Z,57.79
2023-02-27T00:50:20.379Z,57.83
2023-02-27T00:51:23.421Z,57.67
2023-02-27T00:52:27.074Z,57.63
2023-02-27T00:53:30.109Z,58.02
2023-02-27T00:54:33.144Z,58.09
2023-02-27T00:55:36.144Z,58.40
2023-02-27T00:56:39.250Z,58.16
2023-02-27T00:57:42.489Z,58.24
2023-02-27T00:58:45.988Z,58.25
2023-02-27T00:59:48.957Z,58.26
2023-02-27T01:00:52.536Z,58.17
2023-02-27T01:01:55.968Z,58.22
2023-02-27T01:02:59.196Z,58.27
2023-02-27T01:04:02.674Z,58.15
2023-02-27T01:05:06.077Z,58.15
2023-02-27T01:06:09.303Z,58.24
2023-02-27T01:07:12.252Z,58.09
2023-02-27T01:08:16.635Z,58.15
2023-02-27T01:09:19.698Z,58.28
2023-02-27T01:10:22.618Z,58.40
2023-02-27T01:11:25.889Z,58.31
2023-02-27T01:12:29.035Z,58.40
2023-02-27T01:13:32.048Z,58.25
2023-02-27T01:14:35.165Z,58.36
2023-02-27T01:15:38.612Z,58.55
2023-02-27T01:16:41.664Z,58.79
2023-02-27T01:17:44.872Z,58.68
2023-02-27T01:18:47.994Z,58.65
2023-02-27T01:19:51.025Z,58.83
2023-02-27T01:20:55.354Z,58.68
2023-02-27T01:21:58.342Z,58.84
2023-02-27T01:23:01.272Z,58.79
2023-02-27T01:24:04.385Z,58.57
2023-02-27T01:25:08.296Z,58.51
2023-02-27T01:26:11.281Z,58.65
2023-02-27T01:27:14.209Z,58.51
2023-02-27T01:28:17.673Z,58.47
2023-02-27T01:29:21.145Z,58.12
2023-02-27T01:30:24.147Z,58.02
2023-02-27T01:31:27.566Z,58.00
2023-02-27T01:32:30.860Z,58.19
2023-02-27T01:33:34.200Z,58.25
2023-02-27T01:34:37.267Z,57.90
2023-02-27T01:35:40.377Z,57.82
2023-02-27T01:36:43.542Z,57.76
2023-02-27T01:37:46.468Z,57.61
2023-02-27T01:38:49.457Z,57.58
2023-02-27T01:39:52.490Z,57.77
2023-02-27T01:40:56.475Z,57.89
2023-02-27T01:42:00.091Z,57.56
2023-02-27T01:43:03.443Z,57.58
2023-02-27T01:44:09.471Z,57.86
2023-02-27T01:45:12.589Z,57.65
2023-02-27T01:46:15.538Z,57.54
2023-02-27T01:47:18.745Z,57.61
2023-02-27T01:48:40.040Z,57.31
2023-02-27T01:49:43.358Z,57.27
2023-02-27T01:51:04.478Z,57.61
2023-02-27T01:52:11.393Z,57.17
2023-02-27T01:53:15.048Z,57.55
2023-02-27T01:54:22.438Z,57.17
2023-02-27T01:55:27.668Z,57.37
2023-02-27T01:56:32.365Z,57.02
2023-02-27T01:57:38.445Z,57.16
2023-02-27T01:58:43.615Z,57.08
2023-02-27T01:59:46.677Z,56.90
2023-02-27T02:00:50.068Z,57.24
2023-02-27T02:01:53.689Z,57.04
2023-02-27T02:03:12.083Z,56.72
2023-02-27T02:04:39.885Z,56.93
2023-02-27T02:05:45.074Z,56.76
2023-02-27T02:06:54.466Z,56.73
2023-02-27T02:07:58.724Z,56.51
2023-02-27T02:09:03.102Z,56.38
2023-02-27T02:10:08.111Z,56.34
2023-02-27T02:11:12.747Z,56.50
2023-02-27T02:12:19.051Z,56.42
2023-02-27T02:13:22.795Z,56.63
2023-02-27T02:14:25.780Z,56.65
2023-02-27T02:15:37.789Z,56.89
2023-02-27T02:17:00.897Z,56.77
2023-02-27T02:18:22.750Z,56.63
2023-02-27T02:19:40.742Z,56.55
2023-02-27T02:21:12.987Z,56.64
2023-02-27T02:22:53.226Z,56.69
2023-02-27T02:24:33.746Z,56.61
2023-02-27T02:26:01.431Z,56.40
2023-02-27T02:27:30.826Z,56.45
2023-02-27T02:29:14.752Z,56.58
2023-02-27T02:31:06.055Z,56.59
2023-02-27T02:32:21.965Z,56.27
2023-02-27T02:33:55.792Z,56.39
2023-02-27T02:35:23.029Z,56.29
2023-02-27T02:36:53.981Z,56.37
2023-02-27T02:38:06.237Z,56.28
2023-02-27T02:39:22.596Z,56.37
2023-02-27T02:40:36.108Z,56.17
2023-02-27T02:41:54.094Z,56.03
2023-02-27T02:43:06.712Z,56.40
2023-02-27T02:44:24.686Z,56.44
2023-02-27T02:45:40.374Z,56.21
2023-02-27T02:46:47.733Z,55.88
2023-02-27T02:48:02.275Z,56.10
2023-02-27T02:49:20.203Z,56.32
2023-02-27T02:50:40.153Z,55.76
2023-02-27T02:52:11.024Z,55.85
2023-02-27T02:53:37.186Z,55.68
2023-02-27T02:54:55.144Z,55.75
2023-02-27T02:56:05.674Z,55.53
2023-02-27T02:57:24.399Z,55.67
2023-02-27T02:58:29.910Z,55.71
2023-02-27T02:59:56.298Z,55.68
2023-02-27T03:01:10.438Z,55.85
2023-02-27T03:02:18.980Z,56.09
2023-02-27T03:03:28.430Z,55.69
2023-02-27T03:04:42.583Z,55.74
2023-02-27T03:05:56.860Z,55.80
2023-02-27T03:07:21.867Z,55.83
2023-02-27T03:08:31.466Z,56.01
2023-02-27T03:09:49.534Z,55.92
2023-02-27T03:11:06.506Z,56.47
2023-02-27T03:12:13.446Z,56.19
2023-02-27T03:13:49.195Z,56.73
2023-02-27T03:15:17.538Z,55.86
2023-02-27T03:16:20.467Z,56.04
2023-02-27T03:17:48.849Z,55.98
2023-02-27T03:19:06.588Z,56.22
2023-02-27T03:20:15.571Z,55.69
2023-02-27T03:21:30.361Z,56.04
2023-02-27T03:22:38.816Z,56.39
2023-02-27T03:23:48.008Z,56.30
2023-02-27T03:24:57.938Z,56.22
2023-02-27T03:26:01.352Z,56.49
2023-02-27T03:27:08.476Z,55.80
2023-02-27T03:28:19.605Z,55.40
2023-02-27T03:29:30.552Z,55.25
2023-02-27T03:30:36.105Z,55.83
2023-02-27T03:31:42.339Z,56.28
2023-02-27T03:33:11.510Z,56.12
2023-02-27T03:34:19.616Z,56.13
2023-02-27T03:35:26.746Z,55.43
2023-02-27T03:36:59.111Z,55.16
2023-02-27T03:38:18.823Z,54.69
2023-02-27T03:39:44.743Z,54.58
2023-02-27T03:41:09.498Z,54.97
2023-02-27T03:42:34.256Z,55.44
2023-02-27T03:43:54.337Z,55.65
2023-02-27T03:45:25.096Z,55.21
2023-02-27T03:46:28.827Z,54.78
2023-02-27T03:47:34.713Z,54.44
2023-02-27T03:48:38.749Z,54.35
2023-02-27T03:49:41.790Z,54.52
2023-02-27T03:50:45.323Z,54.73
2023-02-27T03:51:48.467Z,54.87
2023-02-27T03:52:51.598Z,54.73
2023-02-27T03:54:10.045Z,54.79
2023-02-27T03:55:18.714Z,54.53
2023-02-27T03:56:27.664Z,55.01
2023-02-27T03:57:32.365Z,55.09
2023-02-27T03:58:36.626Z,54.97
2023-02-27T03:59:39.939Z,54.82
2023-02-27T04:00:43.746Z,54.77
2023-02-27T04:01:46.921Z,54.65
2023-02-27T04:02:53.058Z,54.26
2023-02-27T04:04:06.059Z,54.67
2023-02-27T04:05:09.362Z,53.94
2023-02-27T04:06:30.761Z,53.67
2023-02-27T04:07:54.512Z,53.42
2023-02-27T04:09:22.777Z,53.65
2023-02-27T04:10:31.750Z,53.91
2023-02-27T04:11:40.779Z,54.47
2023-02-27T04:13:17.619Z,53.81
2023-02-27T04:14:31.142Z,53.66
2023-02-27T04:16:06.426Z,54.05
2023-02-27T04:17:28.959Z,53.85
2023-02-27T04:19:04.902Z,53.99
2023-02-27T04:20:08.258Z,53.77
2023-02-27T04:21:29.840Z,53.68
2023-02-27T04:22:47.587Z,53.84
2023-02-27T04:23:57.598Z,54.28
2023-02-27T04:25:06.756Z,53.77
2023-02-27T04:26:28.259Z,53.48
2023-02-27T04:27:46.778Z,53.26
2023-02-27T04:29:05.984Z,53.07
2023-02-27T04:30:38.558Z,53.22
2023-02-27T04:32:14.077Z,53.15
2023-02-27T04:33:53.026Z,53.76
2023-02-27T04:35:06.496Z,53.43
2023-02-27T04:36:17.451Z,52.95
2023-02-27T04:37:31.209Z,53.11
2023-02-27T04:38:42.799Z,52.97
2023-02-27T04:40:05.726Z,52.67
2023-02-27T04:41:15.336Z,52.70
2023-02-27T04:42:29.481Z,52.60
2023-02-27T04:43:35.866Z,52.60
2023-02-27T04:44:40.380Z,52.40
2023-02-27T04:45:47.211Z,52.44
2023-02-27T04:46:54.622Z,52.44
2023-02-27T04:48:03.663Z,52.38
2023-02-27T04:49:15.992Z,52.49
2023-02-27T04:50:30.151Z,52.48
2023-02-27T04:51:39.825Z,52.71
2023-02-27T04:52:50.551Z,52.85
2023-02-27T04:54:14.191Z,53.04
2023-02-27T04:55:36.272Z,52.77
2023-02-27T04:56:42.666Z,52.90
2023-02-27T04:57:53.865Z,52.85
2023-02-27T04:59:08.822Z,52.54
2023-02-27T05:00:14.673Z,52.64
2023-02-27T05:01:25.466Z,52.39
2023-02-27T05:02:38.428Z,52.62
2023-02-27T05:03:47.833Z,52.66
2023-02-27T05:04:54.384Z,52.58
2023-02-27T05:06:00.785Z,52.81
2023-02-27T05:07:06.342Z,52.77
2023-02-27T05:08:17.035Z,52.76
2023-02-27T05:09:37.180Z,52.88
2023-02-27T05:10:49.652Z,52.84
2023-02-27T05:12:24.061Z,52.97
2023-02-27T05:13:33.947Z,53.06
2023-02-27T05:14:46.750Z,52.94
2023-02-27T05:15:56.658Z,52.60
2023-02-27T05:17:37.930Z,52.82
2023-02-27T05:18:41.331Z,53.14
2023-02-27T05:19:45.573Z,53.30
2023-02-27T05:21:09.452Z,53.22
2023-02-27T05:22:36.675Z,53.33
2023-02-27T05:23:44.171Z,53.06
2023-02-27T05:25:16.138Z,52.63
2023-02-27T05:26:37.900Z,53.26
2023-02-27T05:27:53.263Z,53.38
2023-02-27T05:29:10.009Z,53.05
2023-02-27T05:30:49.743Z,53.31
2023-02-27T05:32:24.792Z,53.12
2023-02-27T05:33:33.266Z,52.52
2023-02-27T05:34:48.019Z,52.51
2023-02-27T05:36:11.004Z,52.67
2023-02-27T05:37:35.837Z,52.59
2023-02-27T05:39:01.256Z,52.22
2023-02-27T05:40:08.664Z,52.10
2023-02-27T05:41:26.339Z,51.86
2023-02-27T05:42:36.146Z,51.44
2023-02-27T05:43:47.566Z,51.70
2023-02-27T05:44:56.028Z,51.75
2023-02-27T05:46:05.567Z,51.67
2023-02-27T05:47:17.728Z,51.55
2023-02-27T05:48:29.201Z,51.31
2023-02-27T05:49:48.761Z,51.33
2023-02-27T05:50:53.953Z,51.15
2023-02-27T05:51:59.736Z,51.24
2023-02-27T05:53:10.032Z,51.24
2023-02-27T05:54:41.845Z,51.14
2023-02-27T05:55:49.496Z,51.30
2023-02-27T05:56:55.031Z,51.21
2023-02-27T05:58:09.017Z,51.10
2023-02-27T05:59:22.823Z,51.26
2023-02-27T06:00:35.835Z,50.85
2023-02-27T06:01:39.608Z,50.98
2023-02-27T06:02:45.345Z,51.16
2023-02-27T06:03:48.426Z,51.42
2023-02-27T06:04:51.553Z,51.46
2023-02-27T06:05:57.727Z,51.38
2023-02-27T06:07:01.106Z,51.54
2023-02-27T06:08:04.365Z,51.46
2023-02-27T06:09:08.099Z,51.26
2023-02-27T06:10:20.149Z,51.44
2023-02-27T06:11:23.140Z,51.49
2023-02-27T06:12:25.953Z,51.83
2023-02-27T06:13:29.184Z,51.33
2023-02-27T06:14:32.063Z,51.07
2023-02-27T06:15:34.992Z,51.19
2023-02-27T06:16:39.381Z,51.11
2023-02-27T06:17:42.376Z,51.30
2023-02-27T06:18:45.651Z,51.61
2023-02-27T06:19:48.804Z,51.79
2023-02-27T06:20:52.123Z,51.91
2023-02-27T06:21:55.218Z,51.78
2023-02-27T06:22:58.173Z,51.45
2023-02-27T06:24:01.178Z,51.66
2023-02-27T06:25:04.612Z,51.32
2023-02-27T06:26:07.624Z,51.41
2023-02-27T06:27:10.670Z,51.70
2023-02-27T06:28:13.694Z,51.32
2023-02-27T06:29:17.767Z,51.30
2023-02-27T06:30:21.107Z,51.47
2023-02-27T06:31:24.047Z,51.37
2023-02-27T06:32:27.255Z,51.15
2023-02-27T06:33:30.240Z,50.66
2023-02-27T06:34:33.218Z,50.78
2023-02-27T06:35:36.459Z,50.94
2023-02-27T06:36:40.028Z,51.12
2023-02-27T06:37:43.226Z,50.60
2023-02-27T06:38:46.280Z,50.77
2023-02-27T06:39:49.317Z,50.56
2023-02-27T06:40:52.553Z,50.83
2023-02-27T06:41:55.431Z,51.14
2023-02-27T06:42:58.428Z,51.19
2023-02-27T06:44:01.352Z,50.84
2023-02-27T06:45:04.715Z,50.83
2023-02-27T06:46:07.825Z,51.03
2023-02-27T06:47:11.101Z,50.92
2023-02-27T06:48:15.176Z,50.92
2023-02-27T06:49:19.174Z,50.01
2023-02-27T06:50:22.656Z,49.57
2023-02-27T06:51:25.694Z,49.53
2023-02-27T06:52:28.896Z,49.48
2023-02-27T06:53:31.817Z,49.74
2023-02-27T06:54:34.908Z,49.56
2023-02-27T06:55:38.618Z,49.71
2023-02-27T06:56:41.706Z,49.49
2023-02-27T06:57:44.686Z,49.31
2023-02-27T06:58:47.755Z,49.49
2023-02-27T06:59:50.909Z,49.73
2023-02-27T07:00:54.021Z,49.52
2023-02-27T07:01:59.185Z,49.60
2023-02-27T07:03:05.094Z,49.29
2023-02-27T07:04:13.566Z,49.41
2023-02-27T07:05:16.813Z,49.63
2023-02-27T07:06:20.122Z,49.42
2023-02-27T07:07:35.711Z,49.43
2023-02-27T07:09:01.491Z,49.19
2023-02-27T07:10:05.963Z,49.11
2023-02-27T07:11:09.687Z,48.87
2023-02-27T07:12:12.958Z,48.73
2023-02-27T07:13:19.510Z,48.46
2023-02-27T07:14:22.894Z,48.79
2023-02-27T07:15:25.922Z,48.73
2023-02-27T07:16:29.178Z,49.01
2023-02-27T07:17:32.413Z,48.94
2023-02-27T07:18:35.856Z,48.24
2023-02-27T07:19:39.431Z,48.14
2023-02-27T07:20:43.066Z,48.54
2023-02-27T07:21:46.337Z,48.08
2023-02-27T07:22:49.512Z,48.14
2023-02-27T07:23:52.946Z,48.57
2023-02-27T07:24:56.093Z,48.60
2023-02-27T07:25:59.072Z,48.56
2023-02-27T07:27:02.012Z,48.46
2023-02-27T07:28:05.446Z,48.47
2023-02-27T07:29:11.553Z,48.68
2023-02-27T07:30:14.764Z,48.52
2023-02-27T07:31:18.112Z,48.71
2023-02-27T07:32:21.602Z,47.66
2023-02-27T07:33:24.829Z,47.62
2023-02-27T07:34:27.963Z,47.83
2023-02-27T07:35:31.227Z,48.08
2023-02-27T07:36:34.550Z,47.74
2023-02-27T07:37:38.188Z,47.88
2023-02-27T07:38:41.151Z,47.90
2023-02-27T07:39:45.272Z,48.10
2023-02-27T07:40:48.664Z,47.77
2023-02-27T07:41:51.822Z,48.07
2023-02-27T07:42:55.199Z,48.06
2023-02-27T07:43:58.786Z,47.75
2023-02-27T07:45:01.953Z,48.09
2023-02-27T07:46:05.213Z,48.05
2023-02-27T07:47:08.481Z,47.54
2023-02-27T07:48:11.609Z,47.63
2023-02-27T07:49:14.868Z,47.36
2023-02-27T07:50:17.902Z,46.95
2023-02-27T07:51:21.253Z,47.06
2023-02-27T07:52:24.887Z,47.27
2023-02-27T07:53:28.225Z,47.18
2023-02-27T07:54:31.835Z,47.81
2023-02-27T07:55:37.144Z,47.02
2023-02-27T07:56:40.194Z,46.87
2023-02-27T07:57:45.305Z,46.94
2023-02-27T07:58:48.294Z,46.67
2023-02-27T07:59:51.690Z,46.32
2023-02-27T08:00:55.222Z,46.36
2023-02-27T08:01:58.296Z,46.06
2023-02-27T08:03:01.443Z,46.37
2023-02-27T08:04:04.657Z,46.21
2023-02-27T08:05:08.366Z,45.92
2023-02-27T08:06:11.565Z,46.17
2023-02-27T08:07:14.717Z,46.26
2023-02-27T08:08:17.987Z,46.82
2023-02-27T08:09:21.291Z,46.80
2023-02-27T08:10:24.717Z,46.58
2023-02-27T08:11:28.208Z,46.96
2023-02-27T08:12:31.439Z,46.49
2023-02-27T08:14:57.516Z,46.45
2023-02-27T08:16:00.810Z,46.70
2023-02-27T08:17:03.702Z,46.66
2023-02-27T08:18:06.836Z,47.09
2023-02-27T08:19:10.031Z,46.92
2023-02-27T08:20:14.521Z,47.21
2023-02-27T08:21:17.672Z,47.09
2023-02-27T08:22:21.080Z,46.88
2023-02-27T08:23:24.128Z,46.79
2023-02-27T08:24:27.651Z,46.94
2023-02-27T08:25:30.666Z,47.01
2023-02-27T08:26:34.034Z,46.49
2023-02-27T08:27:37.904Z,45.99
2023-02-27T08:28:41.473Z,46.14
2023-02-27T08:29:45.879Z,46.33
2023-02-27T08:30:52.135Z,46.00
2023-02-27T08:31:55.298Z,46.16
2023-02-27T08:32:58.478Z,45.92
2023-02-27T08:34:09.929Z,46.06
2023-02-27T08:35:13.914Z,46.28
2023-02-27T08:36:17.264Z,46.16
2023-02-27T08:37:20.679Z,46.01
2023-02-27T08:38:26.051Z,46.15
2023-02-27T08:39:29.583Z,45.98
2023-02-27T08:40:32.920Z,46.27
2023-02-27T08:41:36.167Z,46.49
2023-02-27T08:42:39.513Z,46.50
2023-02-27T08:43:42.527Z,46.67
2023-02-27T08:44:45.610Z,46.57
2023-02-27T08:45:49.907Z,46.81
2023-02-27T08:46:53.000Z,46.97
2023-02-27T08:47:55.999Z,47.25
2023-02-27T08:48:59.266Z,47.65
2023-02-27T08:50:02.315Z,47.63
2023-02-27T08:51:05.393Z,47.34
2023-02-27T08:52:10.113Z,46.68
2023-02-27T08:53:13.368Z,46.60
2023-02-27T08:54:16.332Z,46.66
2023-02-27T08:55:19.328Z,46.22
2023-02-27T08:56:22.253Z,46.37
2023-02-27T08:57:25.792Z,46.63
2023-02-27T08:58:29.007Z,46.90
2023-02-27T08:59:32.663Z,46.01
2023-02-27T09:00:35.797Z,45.92
2023-02-27T09:01:38.875Z,45.73
2023-02-27T09:02:42.929Z,45.59
2023-02-27T09:03:46.157Z,45.57
2023-02-27T09:04:49.061Z,45.81
2023-02-27T09:05:52.005Z,45.39
2023-02-27T09:06:55.114Z,45.41
2023-02-27T09:07:58.059Z,45.97
2023-02-27T09:09:01.560Z,45.77
2023-02-27T09:10:04.749Z,45.97
2023-02-27T09:11:07.959Z,45.83
2023-02-27T09:12:11.188Z,46.36
2023-02-27T09:13:14.758Z,46.50
2023-02-27T09:14:18.113Z,46.48
2023-02-27T09:15:21.077Z,45.44
2023-02-27T09:16:24.398Z,45.57
2023-02-27T09:17:27.616Z,45.53
2023-02-27T09:18:30.882Z,45.00
2023-02-27T09:19:34.192Z,45.45
2023-02-27T09:20:37.330Z,45.70
2023-02-27T09:21:40.876Z,45.88
2023-02-27T09:22:44.433Z,45.77
2023-02-27T09:23:47.409Z,45.77
2023-02-27T09:24:50.646Z,45.86
2023-02-27T09:25:53.528Z,45.46
2023-02-27T09:26:56.454Z,45.08
2023-02-27T09:27:59.784Z,45.26
2023-02-27T09:29:02.862Z,45.48
2023-02-27T09:30:06.462Z,45.91
2023-02-27T09:31:11.244Z,46.10
2023-02-27T09:32:14.346Z,46.46
2023-02-27T09:33:17.583Z,46.41
2023-02-27T09:34:20.771Z,46.18
2023-02-27T09:35:23.754Z,46.46
2023-02-27T09:36:27.148Z,46.67
2023-02-27T09:37:30.272Z,46.86
2023-02-27T09:38:35.980Z,46.88
2023-02-27T09:39:39.188Z,46.72
2023-02-27T09:40:50.344Z,46.48
2023-02-27T09:42:11.900Z,45.98
2023-02-27T09:43:19.739Z,46.00
2023-02-27T09:44:46.252Z,46.32
2023-02-27T09:45:56.374Z,46.74
2023-02-27T09:46:59.569Z,46.46
2023-02-27T09:48:07.279Z,46.54
2023-02-27T09:49:16.407Z,46.85
2023-02-27T09:50:38.151Z,46.69
2023-02-27T09:51:41.318Z,47.09
2023-02-27T09:52:45.438Z,45.99
2023-02-27T09:53:51.958Z,46.06
2023-02-27T09:54:55.673Z,45.88
2023-02-27T09:56:15.745Z,46.13
2023-02-27T09:57:42.123Z,46.58
2023-02-27T09:59:03.819Z,46.76
2023-02-27T10:00:35.515Z,47.00
2023-02-27T10:01:48.447Z,46.73
2023-02-27T10:03:09.714Z,46.79
2023-02-27T10:04:21.841Z,47.13
2023-02-27T10:05:46.541Z,46.37
2023-02-27T10:07:13.306Z,46.55
2023-02-27T10:08:37.418Z,46.38
2023-02-27T10:10:09.960Z,46.71
2023-02-27T10:11:16.876Z,46.51
2023-02-27T10:12:35.029Z,46.01
2023-02-27T10:14:03.376Z,45.99
2023-02-27T10:15:15.995Z,45.21
2023-02-27T10:16:22.081Z,45.84
2023-02-27T10:17:28.532Z,45.84
2023-02-27T10:18:36.248Z,46.05
2023-02-27T10:19:40.549Z,46.18
2023-02-27T10:20:51.660Z,46.15
2023-02-27T10:21:56.939Z,45.54
2023-02-27T10:23:05.890Z,45.35
2023-02-27T10:24:30.152Z,45.56
2023-02-27T10:25:39.871Z,46.06
2023-02-27T10:26:45.862Z,46.02
2023-02-27T10:27:51.384Z,45.88
2023-02-27T10:28:54.475Z,45.61
2023-02-27T10:30:29.195Z,45.14
2023-02-27T10:31:36.242Z,45.41
2023-02-27T10:32:40.585Z,45.63
2023-02-27T10:33:45.277Z,46.00
2023-02-27T10:35:09.328Z,45.73
2023-02-27T10:36:27.032Z,46.20
2023-02-27T10:37:40.324Z,45.99
2023-02-27T10:38:55.721Z,46.11
2023-02-27T10:40:05.110Z,46.32
2023-02-27T10:41:13.152Z,46.84
2023-02-27T10:42:17.684Z,46.72
2023-02-27T10:43:21.585Z,46.70
2023-02-27T10:44:24.747Z,46.30
2023-02-27T10:45:27.442Z,46.19
2023-02-27T10:46:33.040Z,47.01
2023-02-27T10:47:39.035Z,47.03
2023-02-27T10:48:42.138Z,46.46
2023-02-27T10:49:45.071Z,46.24
2023-02-27T10:50:52.722Z,45.71
2023-02-27T10:52:16.416Z,45.87
2023-02-27T10:53:25.942Z,45.77
2023-02-27T10:54:28.629Z,45.84
2023-02-27T10:55:34.403Z,46.18
2023-02-27T10:56:37.368Z,46.56
2023-02-27T10:57:43.693Z,46.85
2023-02-27T10:58:46.556Z,46.31
2023-02-27T10:59:56.853Z,45.55
2023-02-27T11:01:02.775Z,45.78
2023-02-27T11:02:21.113Z,45.02
2023-02-27T11:03:30.532Z,45.03
2023-02-27T11:04:39.942Z,45.93
2023-02-27T11:05:42.872Z,45.24
2023-02-27T11:06:54.000Z,44.77
2023-02-27T11:08:10.626Z,44.99
2023-02-27T11:09:26.110Z,45.07
2023-02-27T11:10:29.469Z,44.94
2023-02-27T11:11:32.313Z,45.23
2023-02-27T11:12:35.401Z,45.09
2023-02-27T11:13:43.920Z,44.66
2023-02-27T11:15:11.724Z,44.90
2023-02-27T11:16:21.967Z,44.39
2023-02-27T11:17:30.504Z,44.92
2023-02-27T11:18:35.487Z,44.63
2023-02-27T11:19:40.265Z,44.10
2023-02-27T11:20:43.881Z,44.68
2023-02-27T11:22:04.766Z,45.12
2023-02-27T11:23:25.230Z,45.13
2023-02-27T11:24:29.247Z,45.32
2023-02-27T11:25:33.779Z,45.28
2023-02-27T11:26:40.475Z,45.48
2023-02-27T11:27:43.289Z,44.26
2023-02-27T11:28:46.186Z,44.83
2023-02-27T11:30:04.047Z,44.44
2023-02-27T11:31:22.496Z,43.06
2023-02-27T11:32:32.532Z,43.35
2023-02-27T11:33:58.995Z,43.82
2023-02-27T11:35:01.972Z,43.98
2023-02-27T11:36:05.422Z,43.60
2023-02-27T11:37:24.806Z,43.39
2023-02-27T11:38:30.321Z,44.09
2023-02-27T11:40:00.127Z,43.98
2023-02-27T11:41:05.866Z,43.78
2023-02-27T11:42:14.999Z,44.12
2023-02-27T11:43:49.956Z,44.30
2023-02-27T11:46:13.895Z,43.14
2023-02-27T11:46:47.925Z,43.23
2023-02-27T11:47:58.276Z,43.76
2023-02-27T11:49:08.326Z,43.39
2023-02-27T11:50:48.905Z,42.84
2023-02-27T11:52:09.120Z,42.71
2023-02-27T11:53:49.221Z,42.30
2023-02-27T11:54:58.177Z,42.92
2023-02-27T11:56:05.914Z,43.01
2023-02-27T11:57:27.219Z,42.85
2023-02-27T11:58:42.818Z,42.99
2023-02-27T12:00:01.955Z,42.69
2023-02-27T12:01:13.035Z,43.09
2023-02-27T12:02:48.522Z,42.83
2023-02-27T12:04:04.912Z,43.05
2023-02-27T12:05:21.274Z,42.95
2023-02-27T12:06:38.357Z,41.57
2023-02-27T12:07:54.973Z,41.46
2023-02-27T12:09:19.449Z,41.77
2023-02-27T12:10:24.434Z,42.68
2023-02-27T12:11:41.548Z,42.95
2023-02-27T12:12:47.777Z,41.68
2023-02-27T12:13:59.232Z,42.10
2023-02-27T12:15:10.021Z,41.58
2023-02-27T12:16:54.336Z,41.37
2023-02-27T12:18:15.987Z,40.51
2023-02-27T12:19:25.596Z,41.24
2023-02-27T12:20:36.299Z,40.95
2023-02-27T12:21:44.033Z,39.37
2023-02-27T12:22:52.066Z,38.32
2023-02-27T12:24:02.734Z,38.87
2023-02-27T12:25:22.596Z,39.19
2023-02-27T12:26:28.515Z,39.47
2023-02-27T12:27:59.493Z,40.10
2023-02-27T12:29:25.844Z,39.81
2023-02-27T12:30:36.625Z,39.60
2023-02-27T12:31:47.378Z,39.80
2023-02-27T12:33:00.550Z,38.94
2023-02-27T12:34:29.604Z,38.43
2023-02-27T12:35:33.456Z,38.20
2023-02-27T12:36:36.571Z,38.75
2023-02-27T12:37:39.763Z,38.79
2023-02-27T12:38:43.379Z,39.20
2023-02-27T12:39:46.578Z,39.62
2023-02-27T12:41:10.739Z,39.83
2023-02-27T12:42:16.201Z,39.77
2023-02-27T12:43:54.378Z,39.85
2023-02-27T12:45:13.811Z,40.05
2023-02-27T12:46:26.932Z,40.92
2023-02-27T12:47:52.599Z,40.61
2023-02-27T12:49:11.697Z,40.61
2023-02-27T12:50:21.851Z,40.54
2023-02-27T12:51:44.363Z,40.31
2023-02-27T12:53:15.176Z,40.61
2023-02-27T12:54:24.076Z,40.34
2023-02-27T12:55:32.008Z,40.59
2023-02-27T12:57:16.290Z,40.53
2023-02-27T12:58:34.466Z,40.48
2023-02-27T12:59:40.259Z,40.93
2023-02-27T13:00:53.817Z,41.30
2023-02-27T13:02:32.855Z,41.18
2023-02-27T13:03:54.633Z,41.37
2023-02-27T13:05:09.498Z,42.49
2023-02-27T13:06:42.124Z,41.51
2023-02-27T13:08:03.266Z,40.20
2023-02-27T13:09:25.934Z,40.71
2023-02-27T13:10:51.913Z,40.57
2023-02-27T13:12:07.712Z,40.14
2023-02-27T13:13:24.691Z,40.65
2023-02-27T13:14:50.697Z,41.00
2023-02-27T13:16:07.088Z,40.68
2023-02-27T13:17:21.410Z,41.04
2023-02-27T13:18:52.741Z,40.79
2023-02-27T13:20:34.756Z,40.95
2023-02-27T13:21:46.721Z,40.86
2023-02-27T13:23:14.006Z,41.05
2023-02-27T13:24:31.452Z,40.75
2023-02-27T13:25:38.976Z,40.27
2023-02-27T13:26:47.306Z,40.26
2023-02-27T13:27:50.307Z,40.75
2023-02-27T13:28:54.512Z,40.79
2023-02-27T13:30:03.589Z,41.15
2023-02-27T13:31:30.317Z,41.75
2023-02-27T13:32:49.005Z,40.87
2023-02-27T13:34:05.177Z,41.28
2023-02-27T13:35:20.147Z,41.19
2023-02-27T13:36:32.230Z,41.81
2023-02-27T13:37:58.416Z,41.23
2023-02-27T13:39:01.474Z,41.24
2023-02-27T13:40:32.090Z,41.58
2023-02-27T13:41:38.893Z,41.66
2023-02-27T13:42:47.774Z,40.92
2023-02-27T13:44:16.221Z,40.33
2023-02-27T13:45:50.033Z,41.33
2023-02-27T13:46:52.957Z,41.65
2023-02-27T13:47:57.002Z,41.82
2023-02-27T13:49:05.964Z,41.56
2023-02-27T13:50:28.939Z,41.68
2023-02-27T13:51:41.381Z,41.73
2023-02-27T13:52:45.134Z,41.26
2023-02-27T13:53:48.267Z,41.42
2023-02-27T13:54:55.091Z,41.78
2023-02-27T13:56:23.389Z,42.15
2023-02-27T13:57:28.835Z,41.21
2023-02-27T13:58:31.646Z,41.29
2023-02-27T13:59:37.195Z,41.36
2023-02-27T14:00:40.019Z,41.53
2023-02-27T14:01:52.783Z,41.46
2023-02-27T14:03:00.830Z,42.00
2023-02-27T14:04:08.018Z,42.65
2023-02-27T14:05:15.366Z,42.68
2023-02-27T14:06:18.558Z,43.34
2023-02-27T14:07:24.634Z,43.09
2023-02-27T14:08:30.990Z,42.81
2023-02-27T14:09:38.701Z,42.16
2023-02-27T14:10:58.651Z,41.57
2023-02-27T14:12:04.726Z,41.55
2023-02-27T14:13:45.754Z,40.96
2023-02-27T14:14:50.507Z,41.11
2023-02-27T14:15:57.215Z,39.59
2023-02-27T14:17:01.111Z,39.75
2023-02-27T14:18:15.962Z,40.31
2023-02-27T14:19:28.816Z,40.94
2023-02-27T14:20:31.499Z,40.51
2023-02-27T14:21:56.365Z,40.18
2023-02-27T14:23:17.420Z,39.86
2023-02-27T14:24:26.518Z,40.00
2023-02-27T14:25:40.649Z,40.44
2023-02-27T14:26:46.652Z,40.01
2023-02-27T14:27:57.314Z,40.33
2023-02-27T14:29:01.336Z,40.55
2023-02-27T14:30:10.272Z,39.59
2023-02-27T14:31:28.687Z,40.00
2023-02-27T14:32:37.233Z,40.78
2023-02-27T14:33:50.829Z,40.83
2023-02-27T14:34:55.652Z,40.24
2023-02-27T14:36:02.955Z,40.27
2023-02-27T14:37:11.676Z,40.96
2023-02-27T14:38:19.741Z,41.28
2023-02-27T14:39:35.290Z,41.04
2023-02-27T14:40:51.952Z,41.24
2023-02-27T14:42:02.582Z,41.36
2023-02-27T14:43:15.595Z,41.63
2023-02-27T14:44:24.099Z,41.77
2023-02-27T14:45:31.320Z,41.60
2023-02-27T14:46:39.698Z,41.57
2023-02-27T14:47:42.912Z,41.89
2023-02-27T14:48:45.807Z,41.96
2023-02-27T14:49:48.748Z,41.83
2023-02-27T14:50:54.917Z,42.16
2023-02-27T14:52:11.009Z,41.63
2023-02-27T14:53:26.421Z,41.56
2023-02-27T14:54:29.205Z,41.76
2023-02-27T14:55:36.358Z,41.72
2023-02-27T14:56:39.452Z,42.08
2023-02-27T14:57:54.634Z,42.41
2023-02-27T14:59:04.239Z,42.57
2023-02-27T15:00:28.722Z,42.83
2023-02-27T15:01:36.069Z,42.76
2023-02-27T15:02:39.195Z,43.10